Friday, February 23, 2018, 1:31 PM EST
Back to Local

KAUG, Augusta State Airport

Location: Augusta, ME, United States Lat: 44.317
Local Time: 1:31 PM EST (18:31 GMT) Lon: -69.8
Time Zone: US/Eastern Elev: 351 ft

Show me the last for .
Show Coded

Time T Td Feel RH Dir Speed Gust Alt SLP Vis Weather Sky Remarks
2018-02-23 12:53 32 17 24 53 160° 9 - 30.57 30.58 10 CLR 6-hr Min Temp (1pm): 21.0°F
6-hr Max Temp (1pm): 32.0°F
2018-02-23 11:53 31 13 23 46 150° 8 - 30.62 30.64 10 CLR None
2018-02-23 10:53 29 11 24 46 Variable 5 - 30.66 30.67 10 CLR None
2018-02-23 09:53 27 10 - 48 - Calm - 30.69 30.71 10 CLR None
2018-02-23 08:53 25 10 21 52 90° 3 - 30.70 30.72 10 CLR None
2018-02-23 07:53 22 10 14 59 60° 6 - 30.72 30.73 10 CLR None
2018-02-23 06:53 21 9 13 58 30° 6 - 30.72 30.74 10 CLR 6-hr Min Temp (7am): 19.9°F
6-hr Max Temp (7am): 25.0°F
2018-02-23 05:53 21 9 13 58 60° 6 - 30.73 30.75 10 CLR None
2018-02-23 04:53 22 9 17 56 60° 3 - 30.72 30.74 10 CLR None
2018-02-23 03:53 23 10 18 56 60° 3 - 30.71 30.73 10 CLR None
2018-02-23 02:53 23 10 18 56 30° 3 - 30.70 30.72 10 CLR None
2018-02-23 01:53 24 10 18 54 350° 5 - 30.71 30.73 10 CLR None
2018-02-23 00:53 25 11 19 54 350° 5 - 30.72 30.73 10 CLR 6-hr Min Temp (1am): 25.0°F
6-hr Max Temp (1am): 32.0°F
2018-02-22 23:53 26 10 21 50 350° 5 - 30.68 30.70 10 CLR 24-hr Min Temp (12am): 26.1°F
24-hr Max Temp (12am): 39.9°F
2018-02-22 22:53 28 10 24 46 350° 3 - 30.69 30.70 10 CLR None
2018-02-22 21:53 27 14 22 57 10° 5 - 30.67 30.69 10 CLR None
2018-02-22 20:53 29 15 25 55 340° 3 - 30.67 30.68 10 CLR None
2018-02-22 19:53 31 12 - 44 - Calm - 30.65 30.66 10 CLR None
2018-02-22 18:53 32 12 - 42 - Calm - 30.66 30.67 10 CLR 6-hr Min Temp (7pm): 32.0°F
6-hr Max Temp (7pm): 35.1°F
2018-02-22 17:53 33 12 30 41 60° 3 - 30.65 30.66 10 CLR None
2018-02-22 16:53 34 12 31 39 60° 3 - 30.63 30.65 10 BKN110 None
2018-02-22 15:53 35 12 30 37 350° 6 - 30.63 30.64 10 OVC110 None
2018-02-22 14:53 35 10 32 34 50° 3 - 30.61 30.62 10 OVC110 None
2018-02-22 13:53 35 10 32 34 Variable 3 - 30.61 30.63 10 BKN110 None

Support USWX by starting your Amazon purchase here.